This is the latest recevied weather packets stored in our database for station/object KD9ZDW. If no packets are shown the sender has not sent any weather packets the latest 10 day(s).
| Time | Temp. | Humidity | Pressure | Rain* | Wind** | Luminosity | Snow |
|---|---|---|---|---|---|---|---|
| 1777753673 | 10° C | 41% | 1019.5 hPa | 0 mm | - | 176 W/m² | - |
| 1777753371 | 9.44° C | 43% | 1019.4 hPa | 0 mm | - | 382 W/m² | - |
| 1777753069 | 9.44° C | 43% | 1019.6 hPa | 0 mm | - | 703 W/m² | - |
| 1777752764 | 9.44° C | 46% | 1019.7 hPa | 0 mm | - | 196 W/m² | - |
| 1777752461 | 10° C | 44% | 1019.8 hPa | 0 mm | - | 145 W/m² | - |
| 1777752157 | 9.44° C | 43% | 1019.7 hPa | 0 mm | - | 206 W/m² | - |
| 1777751855 | 8.89° C | 43% | 1019.9 hPa | 0 mm | - | 275 W/m² | - |
| 1777751552 | 8.89° C | 46% | 1020 hPa | 0 mm | - | 187 W/m² | - |
| 1777751248 | 8.89° C | 43% | 1019.9 hPa | 0 mm | - | 252 W/m² | - |
| 1777750946 | 8.33° C | 45% | 1020.3 hPa | 0 mm | - | 306 W/m² | - |
| 1777750641 | 8.89° C | 46% | 1020 hPa | 0 mm | - | 210 W/m² | - |
| 1777750339 | 8.33° C | 46% | 1020.3 hPa | 0 mm | - | 255 W/m² | - |
| 1777750038 | 8.33° C | 48% | 1020.3 hPa | 0 mm | - | 251 W/m² | - |
| 1777749736 | 8.33° C | 43% | 1020.3 hPa | 0 mm | - | 196 W/m² | - |
| 1777749433 | 8.89° C | 47% | 1020.4 hPa | 0 mm | - | 198 W/m² | - |
| 1777749131 | 8.89° C | 45% | 1020.2 hPa | 0 mm | - | 227 W/m² | - |
| 1777748828 | 8.33° C | 46% | 1020.2 hPa | 0 mm | - | 286 W/m² | - |
| 1777748525 | 8.89° C | 43% | 1020.4 hPa | 0 mm | - | 223 W/m² | - |
| 1777748225 | 8.89° C | 45% | 1020.2 hPa | 0 mm | - | 217 W/m² | - |
| 1777747922 | 9.44° C | 45% | 1020.3 hPa | 0 mm | - | 268 W/m² | - |
| 1777747618 | 7.78° C | 43% | 1020.4 hPa | 0 mm | - | 888 W/m² | - |
| 1777747319 | 7.78° C | 46% | 1020.6 hPa | 0 mm | - | 301 W/m² | - |
| 1777747016 | 7.78° C | 50% | 1020.6 hPa | 0 mm | - | 261 W/m² | - |
| 1777746712 | 7.78° C | 47% | 1020.7 hPa | 0 mm | - | 178 W/m² | - |
| 1777746407 | 7.78° C | 48% | 1020.6 hPa | 0 mm | - | 146 W/m² | - |
* Rain latest hour (hover to see other rain measurements)
** Current wind speed in m/s (hover to see current wind gust speed)